createdAt,value
2022-08-21T00:04:39.858Z,18.17
2022-08-21T00:10:00.424Z,18.08
2022-08-21T00:15:04.597Z,18.04
2022-08-21T00:20:13.358Z,17.91
2022-08-21T00:25:16.868Z,17.91
2022-08-21T00:30:24.685Z,17.89
2022-08-21T00:35:31.937Z,17.84
2022-08-21T00:40:45.245Z,17.82
2022-08-21T00:45:47.878Z,17.70
2022-08-21T00:50:59.227Z,17.78
2022-08-21T00:56:04.382Z,17.49
2022-08-21T01:01:09.696Z,17.69
2022-08-21T01:06:12.715Z,17.61
2022-08-21T01:11:16.880Z,17.53
2022-08-21T01:16:22.566Z,17.44
2022-08-21T01:21:28.742Z,17.30
2022-08-21T01:26:35.719Z,17.14
2022-08-21T01:31:38.894Z,17.03
2022-08-21T01:36:41.595Z,16.98
2022-08-21T01:41:44.673Z,16.86
2022-08-21T01:46:47.360Z,16.84
2022-08-21T01:51:50.069Z,16.79
2022-08-21T01:56:54.625Z,16.69
2022-08-21T02:01:57.737Z,16.57
2022-08-21T02:07:01.468Z,16.48
2022-08-21T02:12:04.963Z,16.34
2022-08-21T02:17:09.241Z,16.40
2022-08-21T02:22:12.772Z,16.44
2022-08-21T02:27:15.407Z,16.44
2022-08-21T02:32:18.195Z,16.87
2022-08-21T02:37:20.883Z,17.30
2022-08-21T02:42:23.668Z,17.70
2022-08-21T02:47:26.338Z,18.21
2022-08-21T02:52:28.997Z,18.27
2022-08-21T02:57:33.637Z,18.26
2022-08-21T03:02:36.716Z,18.34
2022-08-21T03:07:40.480Z,18.49
2022-08-21T03:12:44.469Z,18.60
2022-08-21T03:17:48.695Z,18.78
2022-08-21T03:22:53.217Z,19.05
2022-08-21T03:27:58.813Z,19.58
2022-08-21T03:33:02.520Z,19.73
2022-08-21T03:38:05.754Z,19.83
2022-08-21T03:43:10.678Z,19.95
2022-08-21T03:48:13.717Z,19.85
2022-08-21T03:53:17.973Z,19.84
2022-08-21T03:58:24.461Z,19.94
2022-08-21T04:03:28.434Z,20.03
2022-08-21T04:08:31.373Z,20.09
2022-08-21T04:13:35.122Z,20.08
2022-08-21T04:18:46.984Z,20.01
2022-08-21T04:23:49.687Z,20.05
2022-08-21T04:28:53.101Z,20.15
2022-08-21T04:33:56.119Z,20.09
2022-08-21T04:38:59.001Z,20.26
2022-08-21T04:44:02.562Z,20.65
2022-08-21T04:49:05.171Z,20.85
2022-08-21T04:54:15.736Z,21.19
2022-08-21T04:59:37.346Z,21.29
2022-08-21T05:04:49.833Z,21.54
2022-08-21T05:09:53.363Z,21.51
2022-08-21T05:14:56.473Z,21.41
2022-08-21T05:19:59.136Z,21.47
2022-08-21T05:25:01.892Z,21.37
2022-08-21T05:30:08.750Z,21.32
2022-08-21T05:35:12.372Z,21.33
2022-08-21T05:40:21.465Z,21.68
2022-08-21T05:45:43.009Z,21.77
2022-08-21T05:50:48.593Z,22.09
2022-08-21T05:55:53.161Z,22.28
2022-08-21T06:00:56.031Z,22.28
2022-08-21T06:05:59.089Z,22.47
2022-08-21T06:11:02.755Z,22.36
2022-08-21T06:16:15.623Z,22.42
2022-08-21T06:21:19.286Z,22.56
2022-08-21T06:26:22.617Z,22.65
2022-08-21T06:31:27.610Z,22.85
2022-08-21T06:36:30.385Z,23.02
2022-08-21T06:41:39.102Z,23.09
2022-08-21T06:46:41.928Z,23.09
2022-08-21T06:51:47.376Z,23.23
2022-08-21T06:56:50.160Z,23.41
2022-08-21T07:01:52.876Z,23.55
2022-08-21T07:06:55.891Z,23.56
2022-08-21T07:11:58.954Z,23.86
2022-08-21T07:17:02.369Z,23.92
2022-08-21T07:22:05.492Z,23.97
2022-08-21T07:27:10.049Z,24.14
2022-08-21T07:32:13.355Z,24.22
2022-08-21T07:37:16.129Z,24.38
2022-08-21T07:42:20.040Z,24.55
2022-08-21T07:47:29.509Z,24.53
2022-08-21T07:52:46.058Z,24.72
2022-08-21T07:57:49.525Z,24.73
2022-08-21T08:02:54.218Z,24.91
2022-08-21T08:07:57.584Z,24.88
2022-08-21T08:13:01.485Z,25.14
2022-08-21T08:18:04.713Z,25.04
2022-08-21T08:23:07.448Z,24.82
2022-08-21T08:28:17.192Z,25.01
2022-08-21T08:33:21.419Z,25.35
2022-08-21T08:38:26.263Z,25.75
2022-08-21T08:43:34.591Z,26.13
2022-08-21T08:48:49.372Z,26.36
2022-08-21T08:54:01.131Z,25.96
2022-08-21T08:59:18.368Z,25.24
2022-08-21T09:04:26.232Z,25.20
2022-08-21T09:09:40.320Z,25.35
2022-08-21T09:15:04.482Z,25.56
2022-08-21T09:20:17.608Z,25.74
2022-08-21T09:25:27.579Z,25.88
2022-08-21T09:30:33.630Z,26.36
2022-08-21T09:35:38.345Z,26.33
2022-08-21T09:40:45.270Z,26.43
2022-08-21T09:45:51.283Z,26.40
2022-08-21T09:50:55.193Z,26.34
2022-08-21T09:56:21.477Z,26.32
2022-08-21T10:01:27.434Z,26.53
2022-08-21T10:06:30.894Z,26.63
2022-08-21T10:11:34.738Z,26.88
2022-08-21T10:16:49.584Z,27.08
2022-08-21T10:22:27.357Z,26.84
2022-08-21T10:28:13.400Z,26.84
2022-08-21T10:33:34.849Z,26.84
2022-08-21T10:39:35.843Z,26.91
2022-08-21T10:45:00.133Z,26.52
2022-08-21T10:50:09.669Z,26.32
2022-08-21T10:55:38.678Z,26.33
2022-08-21T11:00:49.515Z,26.35
2022-08-21T11:06:01.179Z,26.25
2022-08-21T11:11:21.640Z,26.18
2022-08-21T11:16:25.144Z,26.07
2022-08-21T11:21:41.778Z,26.14
2022-08-21T11:26:59.620Z,26.32
2022-08-21T11:32:20.776Z,26.28
2022-08-21T11:37:28.662Z,26.19
2022-08-21T11:42:45.285Z,26.26
2022-08-21T11:48:03.265Z,25.99
2022-08-21T11:53:22.548Z,25.89
2022-08-21T11:58:44.271Z,25.68
2022-08-21T12:04:30.175Z,25.36
2022-08-21T12:09:37.796Z,25.16
2022-08-21T12:14:52.169Z,25.02
2022-08-21T12:20:00.281Z,24.96
2022-08-21T12:25:11.194Z,25.06
2022-08-21T12:30:39.015Z,25.29
2022-08-21T12:35:44.659Z,25.43
2022-08-21T12:40:50.039Z,25.47
2022-08-21T12:45:53.511Z,25.55
2022-08-21T12:51:01.702Z,25.60
2022-08-21T12:56:10.101Z,25.62
2022-08-21T13:01:40.919Z,25.56
2022-08-21T13:06:52.455Z,25.51
2022-08-21T13:11:56.562Z,25.42
2022-08-21T13:17:01.034Z,25.45
2022-08-21T13:22:15.932Z,25.34
2022-08-21T13:27:31.273Z,25.53
2022-08-21T13:32:38.908Z,25.63
2022-08-21T13:37:44.432Z,25.61
2022-08-21T13:42:49.414Z,25.66
2022-08-21T13:47:54.068Z,25.64
2022-08-21T13:53:06.982Z,25.78
2022-08-21T13:58:11.209Z,25.72
2022-08-21T14:03:29.729Z,25.78
2022-08-21T14:08:35.761Z,25.68
2022-08-21T14:13:46.374Z,25.66
2022-08-21T14:18:53.509Z,25.58
2022-08-21T14:24:08.577Z,25.64
2022-08-21T14:29:13.751Z,25.54
2022-08-21T14:34:19.589Z,25.38
2022-08-21T14:39:23.262Z,25.32
2022-08-21T14:44:26.000Z,25.35
2022-08-21T14:49:29.961Z,25.31
2022-08-21T14:54:33.116Z,25.17
2022-08-21T14:59:37.112Z,25.04
2022-08-21T15:04:39.960Z,24.92
2022-08-21T15:09:42.654Z,24.78
2022-08-21T15:14:45.376Z,24.69
2022-08-21T15:19:48.097Z,24.67
2022-08-21T15:24:50.709Z,24.59
2022-08-21T15:29:55.405Z,24.40
2022-08-21T15:34:59.109Z,24.33
2022-08-21T15:40:01.913Z,24.35
2022-08-21T15:45:06.816Z,24.27
2022-08-21T15:50:10.813Z,24.17
2022-08-21T15:55:14.430Z,24.10
2022-08-21T16:00:22.758Z,24.00
2022-08-21T16:10:30.015Z,23.54
2022-08-21T16:15:33.596Z,23.62
2022-08-21T16:20:36.316Z,23.59
2022-08-21T16:25:40.737Z,23.54
2022-08-21T16:30:47.362Z,23.51
2022-08-21T16:35:50.020Z,23.46
2022-08-21T16:40:52.668Z,23.45
2022-08-21T16:45:56.868Z,23.30
2022-08-21T16:50:59.551Z,23.20
2022-08-21T16:56:02.336Z,23.32
2022-08-21T17:01:08.306Z,23.27
2022-08-21T17:06:11.858Z,23.20
2022-08-21T17:11:36.768Z,23.08
2022-08-21T17:16:44.509Z,23.00
2022-08-21T17:21:47.597Z,23.02
2022-08-21T17:26:52.777Z,23.00
2022-08-21T17:31:56.745Z,23.10
2022-08-21T17:37:00.541Z,23.02
2022-08-21T17:42:09.893Z,22.95
2022-08-21T17:47:13.499Z,22.94
2022-08-21T17:52:16.465Z,22.94
2022-08-21T17:57:22.956Z,22.62
2022-08-21T18:02:25.882Z,22.81
2022-08-21T18:07:32.558Z,22.68
2022-08-21T18:12:36.329Z,22.68
2022-08-21T18:17:42.052Z,22.61
2022-08-21T18:22:45.598Z,22.46
2022-08-21T18:27:48.863Z,22.33
2022-08-21T18:32:54.498Z,22.18
2022-08-21T18:37:57.217Z,22.23
2022-08-21T18:43:04.138Z,22.16
2022-08-21T18:48:12.314Z,22.09
2022-08-21T18:53:24.011Z,22.02
2022-08-21T18:58:30.802Z,21.94
2022-08-21T19:03:33.431Z,21.86
2022-08-21T19:08:36.589Z,21.83
2022-08-21T19:13:40.870Z,21.88
2022-08-21T19:18:44.140Z,21.68
2022-08-21T19:23:52.579Z,21.84
2022-08-21T19:29:16.486Z,21.74
2022-08-21T19:34:24.101Z,21.70
2022-08-21T19:39:26.798Z,21.64
2022-08-21T19:44:31.804Z,21.32
2022-08-21T19:49:36.603Z,21.59
2022-08-21T19:54:39.581Z,21.57
2022-08-21T19:59:43.684Z,21.23
2022-08-21T20:04:53.985Z,21.29
2022-08-21T20:10:10.622Z,21.38
2022-08-21T20:15:16.334Z,21.32
2022-08-21T20:20:19.608Z,21.38
2022-08-21T20:25:22.995Z,21.21
2022-08-21T20:30:25.764Z,21.18
2022-08-21T20:35:29.105Z,21.12
2022-08-21T20:45:55.796Z,20.87
2022-08-21T20:51:25.352Z,20.75
2022-08-21T20:56:37.216Z,20.66
2022-08-21T21:01:41.742Z,20.60
2022-08-21T21:06:44.749Z,20.49
2022-08-21T21:11:57.609Z,20.39
2022-08-21T21:17:05.162Z,20.41
2022-08-21T21:22:10.558Z,20.40
2022-08-21T21:27:34.671Z,20.39
2022-08-21T21:32:39.066Z,20.34
2022-08-21T21:37:55.671Z,20.38
2022-08-21T21:43:27.699Z,20.40
2022-08-21T21:48:45.493Z,20.54
2022-08-21T21:53:54.518Z,20.52
2022-08-21T21:59:29.900Z,20.44
2022-08-21T22:04:38.222Z,20.44
2022-08-21T22:10:19.688Z,20.38
2022-08-21T22:15:32.914Z,20.29
2022-08-21T22:20:46.545Z,20.31
2022-08-21T22:25:54.241Z,20.27
2022-08-21T22:31:18.213Z,20.29
2022-08-21T22:36:21.934Z,20.30
2022-08-21T22:41:28.705Z,20.35
2022-08-21T22:46:31.275Z,20.39
2022-08-21T22:51:44.489Z,20.31
2022-08-21T22:56:55.261Z,20.32
2022-08-21T23:02:05.872Z,20.32
2022-08-21T23:07:09.725Z,20.24
2022-08-21T23:12:33.158Z,20.30
2022-08-21T23:17:49.967Z,20.30
2022-08-21T23:23:02.677Z,20.28
2022-08-21T23:28:41.703Z,20.26
2022-08-21T23:34:20.169Z,20.24
2022-08-21T23:39:41.289Z,20.25
2022-08-21T23:45:13.760Z,20.22
2022-08-21T23:50:44.720Z,20.21
2022-08-21T23:56:02.424Z,20.19
